Coburg, Germany
Current Conditions -  °F | °C
As of 7:50 PM on Wednesday 22 Oct 2014 (Local Time) from EDQM Reporting Station
Moderate Rain Moderate Rain  
Wind Chill: 34°   Ceiling: 1000
Heat Index: 41°   Visibility: 4mi
Dew Point: 39°   Wind: 13mph
Humidity: 93%   Direction: 280°W
Pressure: 29.8"   Gusts: NA
Location:  50.26°N, 10.97°E
Report Text: EDQM 221750Z 28011KT 6000 RA BKN010 OVC013 05/04 Q1009
Loading
Personal Weather Stations






























Interactive Weather Map
Tropical Storm Tracking
New forecast layout! Learn more

10-Day Weather Forecast

Advertisements
Track Severe Weather on mobile